Safmarine Bayete — VRKZ9 — position and weather

sailwx.info

Track history (hours):
 
Tides and Currents Weather Stations Pressure Air Temp Water Temp Dewpoint Dewpoint Depression Visibility Wind Speed Wind Dir Waves Ship Positions

Safmarine Bayete

Last reported at 2018-Jul-14 12:23 UTC. Time now 2018-Jul-17 09:38 UTC.
Position N 38°46' W 072°19'.

Length 223 m; draft 10.7 m.

Type: Cargo ship. MMSI: 477211100.

Date/timePositionNaut miles runAvg speedWind from/ knotsBaromVisibWave heightAir tempDewpointWater temp
2018-Jul-14 12:23N 38°46' W 072°19'410.2
2018-Jul-14 12:00N 38°50' W 072°22'510.2
2018-Jul-14 11:30N 38°54' W 072°26'510.2
2018-Jul-14 11:00N 38°58' W 072°29'510.2
2018-Jul-14 10:30N 39°03' W 072°33'510.1
2018-Jul-14 10:00N 39°07' W 072°36'510.2
2018-Jul-14 09:30N 39°11' W 072°40'510.0
2018-Jul-14 09:00N 39°15' W 072°43'510.0
2018-Jul-14 08:30N 39°19' W 072°47'510.1
2018-Jul-14 08:00N 39°24' W 072°50'510.3
2018-Jul-14 07:30N 39°28' W 072°54'610.6
2018-Jul-14 06:59N 39°33' W 072°58'610.7
2018-Jul-14 06:26N 39°37' W 073°02'510.8
2018-Jul-14 06:00N 39°41' W 073°05'510.7
2018-Jul-14 05:30N 39°46' W 073°09'510.5
2018-Jul-14 05:00N 39°50' W 073°13'510.5
2018-Jul-14 04:30N 39°55' W 073°17'510.5
2018-Jul-14 04:00N 39°59' W 073°20'610.4
2018-Jul-14 03:26N 40°04' W 073°25'410.5
2018-Jul-14 03:00N 40°07' W 073°28'510.3
2018-Jul-14 02:29N 40°11' W 073°33'20 9.8
2018-Jul-14 00:24N 40°27' W 073°50'614.0
2018-Jul-14 00:00N 40°30' W 073°56'612.4
2018-Jul-13 23:31N 40°34' W 074°02'510.8
2018-Jul-13 23:00N 40°39' W 074°06'3 5.1
2018-Jul-13 22:30N 40°39' W 074°09'1 1.2
2018-Jul-13 22:00N 40°40' W 074°09'0 0.0
2018-Jul-13 21:30N 40°40' W 074°09'0 0.0
2018-Jul-13 20:57N 40°40' W 074°09'0 0.0
2018-Jul-13 20:27N 40°40' W 074°09'0 0.0
2018-Jul-13 20:00N 40°40' W 074°09'0 0.0
2018-Jul-13 19:30N 40°40' W 074°09'0 0.0
2018-Jul-13 19:00N 40°40' W 074°09'0 0.0
2018-Jul-13 18:30N 40°40' W 074°09'0 0.0
2018-Jul-13 18:00N 40°40' W 074°09'0 0.0
2018-Jul-13 17:30N 40°40' W 074°09'0 0.0
2018-Jul-13 17:00N 40°40' W 074°09'0 0.0
2018-Jul-13 16:30N 40°40' W 074°09'0 0.0
2018-Jul-13 16:00N 40°40' W 074°09'0 0.0
2018-Jul-13 15:30N 40°40' W 074°09'0 0.0
2018-Jul-13 15:00N 40°40' W 074°09'0 0.0
2018-Jul-13 14:30N 40°40' W 074°09'0 0.0
2018-Jul-13 13:30N 40°40' W 074°09'0 0.0
2018-Jul-13 13:00N 40°40' W 074°09'0 0.0
2018-Jul-13 12:30N 40°40' W 074°09'0 0.0
2018-Jul-13 12:00N 40°40' W 074°09'0 0.0
2018-Jul-13 11:30N 40°40' W 074°09'0 0.0
2018-Jul-13 11:00N 40°40' W 074°09'0 0.6
2018-Jul-13 10:31N 40°39' W 074°09'2 3.8
2018-Jul-13 10:00N 40°39' W 074°06'3 5.6
2018-Jul-13 09:30N 40°38' W 074°03'4 8.6
2018-Jul-13 09:01N 40°34' W 074°02'612.5
2018-Jul-13 08:30N 40°30' W 073°55'612.4
2018-Jul-13 08:00N 40°27' W 073°48'3 5.5
2018-Jul-13 07:30N 40°27' W 073°44'4 9.0
2018-Jul-13 07:00N 40°27' W 073°38'510.5
2018-Jul-13 06:30N 40°28' W 073°32'510.4
2018-Jul-13 06:00N 40°28' W 073°25'510.3
2018-Jul-13 05:30N 40°29' W 073°18'510.3
2018-Jul-13 05:00N 40°29' W 073°11'510.3
2018-Jul-13 04:30N 40°30' W 073°05'510.2
2018-Jul-13 04:00N 40°30' W 072°58'510.2
2018-Jul-13 03:30N 40°30' W 072°51'510.7
2018-Jul-13 03:00N 40°31' W 072°44'510.3
2018-Jul-13 02:30N 40°32' W 072°38'510.1
2018-Jul-13 02:00N 40°34' W 072°31'9 0.7
2018-Jul-12 12:05N 40°30' W 072°43'110.2
2018-Jul-12 12:00N 40°30' W 072°42'1110.3
2018-Jul-12 10:55N 40°30' W 072°27'4 9.9
2018-Jul-12 10:29N 40°31' W 072°21'5 9.8
2018-Jul-12 10:01N 40°31' W 072°15'11 9.8
2018-Jul-12 08:54N 40°31' W 072°01'410.1
2018-Jul-12 08:31N 40°31' W 071°56'510.2
2018-Jul-12 08:00N 40°31' W 071°49'510.2
2018-Jul-12 07:31N 40°31' W 071°42'510.3
2018-Jul-12 07:00N 40°31' W 071°36'  
Track history (hours):
 
Tides and Currents Weather Stations Pressure Air Temp Water Temp Dewpoint Dewpoint Depression Visibility Wind Speed Wind Dir Waves Ship Positions

Safmarine Bayete

Last reported at 2018-Jul-14 12:23 UTC. Time now 2018-Jul-17 09:38 UTC.
Position N 38°46' W 072°19'.

Length 223 m; draft 10.7 m.

Type: Cargo ship. MMSI: 477211100.

Date/timePositionNaut miles runAvg speedWind from/ knotsBaromVisibWave heightAir tempDewpointWater temp
2018-Jul-14 12:23N 38°46' W 072°19'410.2
2018-Jul-14 12:00N 38°50' W 072°22'510.2
2018-Jul-14 11:30N 38°54' W 072°26'510.2
2018-Jul-14 11:00N 38°58' W 072°29'510.2
2018-Jul-14 10:30N 39°03' W 072°33'510.1
2018-Jul-14 10:00N 39°07' W 072°36'510.2
2018-Jul-14 09:30N 39°11' W 072°40'510.0
2018-Jul-14 09:00N 39°15' W 072°43'510.0
2018-Jul-14 08:30N 39°19' W 072°47'510.1
2018-Jul-14 08:00N 39°24' W 072°50'510.3
2018-Jul-14 07:30N 39°28' W 072°54'610.6
2018-Jul-14 06:59N 39°33' W 072°58'610.7
2018-Jul-14 06:26N 39°37' W 073°02'510.8
2018-Jul-14 06:00N 39°41' W 073°05'510.7
2018-Jul-14 05:30N 39°46' W 073°09'510.5
2018-Jul-14 05:00N 39°50' W 073°13'510.5
2018-Jul-14 04:30N 39°55' W 073°17'510.5
2018-Jul-14 04:00N 39°59' W 073°20'610.4
2018-Jul-14 03:26N 40°04' W 073°25'410.5
2018-Jul-14 03:00N 40°07' W 073°28'510.3
2018-Jul-14 02:29N 40°11' W 073°33'20 9.8
2018-Jul-14 00:24N 40°27' W 073°50'614.0
2018-Jul-14 00:00N 40°30' W 073°56'612.4
2018-Jul-13 23:31N 40°34' W 074°02'510.8
2018-Jul-13 23:00N 40°39' W 074°06'3 5.1
2018-Jul-13 22:30N 40°39' W 074°09'1 1.2
2018-Jul-13 22:00N 40°40' W 074°09'0 0.0
2018-Jul-13 21:30N 40°40' W 074°09'0 0.0
2018-Jul-13 20:57N 40°40' W 074°09'0 0.0
2018-Jul-13 20:27N 40°40' W 074°09'0 0.0
2018-Jul-13 20:00N 40°40' W 074°09'0 0.0
2018-Jul-13 19:30N 40°40' W 074°09'0 0.0
2018-Jul-13 19:00N 40°40' W 074°09'0 0.0
2018-Jul-13 18:30N 40°40' W 074°09'0 0.0
2018-Jul-13 18:00N 40°40' W 074°09'0 0.0
2018-Jul-13 17:30N 40°40' W 074°09'0 0.0
2018-Jul-13 17:00N 40°40' W 074°09'0 0.0
2018-Jul-13 16:30N 40°40' W 074°09'0 0.0
2018-Jul-13 16:00N 40°40' W 074°09'0 0.0
2018-Jul-13 15:30N 40°40' W 074°09'0 0.0
2018-Jul-13 15:00N 40°40' W 074°09'0 0.0
2018-Jul-13 14:30N 40°40' W 074°09'0 0.0
2018-Jul-13 13:30N 40°40' W 074°09'0 0.0
2018-Jul-13 13:00N 40°40' W 074°09'0 0.0
2018-Jul-13 12:30N 40°40' W 074°09'0 0.0
2018-Jul-13 12:00N 40°40' W 074°09'0 0.0
2018-Jul-13 11:30N 40°40' W 074°09'0 0.0
2018-Jul-13 11:00N 40°40' W 074°09'0 0.6
2018-Jul-13 10:31N 40°39' W 074°09'2 3.8
2018-Jul-13 10:00N 40°39' W 074°06'3 5.6
2018-Jul-13 09:30N 40°38' W 074°03'4 8.6
2018-Jul-13 09:01N 40°34' W 074°02'612.5
2018-Jul-13 08:30N 40°30' W 073°55'612.4
2018-Jul-13 08:00N 40°27' W 073°48'3 5.5
2018-Jul-13 07:30N 40°27' W 073°44'4 9.0
2018-Jul-13 07:00N 40°27' W 073°38'510.5
2018-Jul-13 06:30N 40°28' W 073°32'510.4
2018-Jul-13 06:00N 40°28' W 073°25'510.3
2018-Jul-13 05:30N 40°29' W 073°18'510.3
2018-Jul-13 05:00N 40°29' W 073°11'510.3
2018-Jul-13 04:30N 40°30' W 073°05'510.2
2018-Jul-13 04:00N 40°30' W 072°58'510.2
2018-Jul-13 03:30N 40°30' W 072°51'510.7
2018-Jul-13 03:00N 40°31' W 072°44'510.3
2018-Jul-13 02:30N 40°32' W 072°38'510.1
2018-Jul-13 02:00N 40°34' W 072°31'9 0.7
2018-Jul-12 12:05N 40°30' W 072°43'110.2
2018-Jul-12 12:00N 40°30' W 072°42'1110.3
2018-Jul-12 10:55N 40°30' W 072°27'4 9.9
2018-Jul-12 10:29N 40°31' W 072°21'5 9.8
2018-Jul-12 10:01N 40°31' W 072°15'11 9.8
2018-Jul-12 08:54N 40°31' W 072°01'410.1
2018-Jul-12 08:31N 40°31' W 071°56'510.2
2018-Jul-12 08:00N 40°31' W 071°49'510.2
2018-Jul-12 07:31N 40°31' W 071°42'510.3
2018-Jul-12 07:00N 40°31' W 071°36'  

Dump ship's entire track history